Abyar Ali, Saudi Arabia
Current Conditions -  °F | °C
As of 12:00 PM on Monday 22 Dec 2014 (Local Time) from OEMA Reporting Station
Clear Clear  
Wind Chill: 70°   Ceiling: Unl
Heat Index: 70°   Visibility: 6mi
Dew Point: 37°   Wind: 9mph
Humidity: 31%   Direction: 100°E
Pressure: 30.09"   Gusts: NA
Location:  24.45°N, 39.55°E
Report Text: OEMA 220900Z 10008KT CAVOK 21/03 Q1019 NOSIG
Loading
Personal Weather Stations






























Interactive Weather Map New forecast layout! Learn more

10-Day Weather Forecast

Advertisements
Track Severe Weather on mobile